Guffin Bay, New York
Current Conditions -  °F | °C
As of 4:56 AM on Tuesday 21 Oct 2014 (Local Time) from KART Reporting Station
Overcast Overcast  
Wind Chill: 51°   Ceiling: 5000
Heat Index: 51°   Visibility: 10mi
Dew Point: 43°   Wind: 5mph
Humidity: 74%   Direction: 130°SE
Pressure: 29.83"   Gusts: NA
Location:  44.0116°N, 76.0789°W
Report Text: KART 210856Z AUTO 13004KT 10SM OVC050 11/06 A2983 RMK AO2 SLP099 60001 T01060061 56004
Loading
Personal Weather Stations






























Interactive Weather Map
Tropical Storm Tracking
New forecast layout! Learn more

10-Day Weather Forecast

Advertisements
Track Severe Weather on mobile